• Join FlightAware (Why Join?)
  • Login
  • US Flag 
12:17PM EDT


 

Airport Tracker/Info


-or-


 

Live Flight TrackerFlight Track Log ✈ N73DB ✈ 23-Nov-2013 ✈ KTEB - KCLT

Flight Track Log - Related Links

Times and Time Zones

All times are in EST time to prevent confusion due to time zone crossing. See the N73DB flight status page for this flight to view local times or setup timezone preferences in your user account.

Time Position Orientation Groundspeed Altitude Reporting Facility
EST Latitude Longitude Course Direction KTS MPH feet Rate Location/Type
09:12AM 40.8989 -74.0681 270° West 215 247 2,100  Level New York Center
09:13AM 40.8928 -74.1364 263° West 234 269 3,800 1,980 Climbing New York Center
09:14AM 40.8903 -74.2214 268° West 240 276 6,100 2,220 Climbing New York Center
09:15AM 40.8872 -74.3311 268° West 247 284 8,300 2,100 Climbing New York Center
09:16AM 40.8833 -74.4333 267° West 245 282 10,800 2,220 Climbing New York TRACON
09:17AM 40.6119 -74.3860 270° West  Level Estimated
09:17AM 40.8758 -74.4950 261° West 238 274 12,800  Level New York Center
09:18AM 40.8736 -74.5636 268° West 230 265 14,000 600 Climbing New York Center
09:19AM 40.8686 -74.6511 266° West 225 259 14,000  Level New York Center
09:20AM 40.8581 -74.7219 259° West 220 253 14,000  Level New York Center
09:21AM 40.7878 -74.7644 205° Southwest 235 270 14,000  Level New York Center
09:22AM 40.7261 -74.7992 203° Southwest 261 300 14,000 360 Level New York Center
09:23AM 40.6519 -74.8411 203° Southwest 266 306 14,800 900 Climbing New York Center
09:24AM 40.5794 -74.8833 204° Southwest 282 325 15,900 1,020 Climbing New York Center
09:25AM 40.5072 -74.9281 205° Southwest 282 325 16,900 600 Climbing New York Center
09:26AM 40.4308 -74.9672 201° Southwest 287 330 17,100 900 Climbing New York Center
09:27AM 40.3847 -75.0269 225° Southwest 271 312 18,800 1,380 Climbing New York Center
09:28AM 40.3367 -75.0922 226° Southwest 257 296 19,900 1,200 Climbing New York Center
09:29AM 40.2883 -75.1600 227° Southwest 257 296 21,300 1,200 Climbing New York Center
09:30AM 40.2397 -75.2275 227° Southwest 257 296 22,400 1,140 Climbing New York Center
09:31AM 40.1936 -75.2925 227° Southwest 257 296 23,600 1,140 Climbing New York Center
09:32AM 40.1453 -75.3600 227° Southwest 257 296 24,700 1,080 Climbing New York Center
09:33AM 40.0967 -75.4300 228° Southwest 257 296 25,800 1,140 Climbing New York Center
09:34AM 40.0481 -75.4944 225° Southwest 257 296 27,000 1,200 Climbing New York Center
09:35AM 40.0039 -75.5594 228° Southwest 252 290 28,300 1,260 Climbing New York Center
09:36AM 39.9575 -75.6239 227° Southwest 252 290 29,600 1,380 Climbing New York Center
09:37AM 39.9133 -75.6831 226° Southwest 247 284 31,100 1,320 Climbing New York Center
09:38AM 39.8772 -75.7456 233° Southwest 240 276 32,300 1,140 Climbing New York Center
09:39AM 39.8372 -75.8047 229° Southwest 228 262 33,400 1,080 Climbing New York Center
09:40AM 39.8011 -75.8669 233° Southwest 223 257 34,500 900 Climbing New York Center
09:41AM 39.7631 -75.9264 230° Southwest 223 257 35,300 600 Climbing New York Center
09:42AM 39.7272 -75.9858 232° Southwest 218 251 35,800 300 Climbing New York Center
09:43AM 39.6847 -76.0503 229° Southwest 224 258 36,000 60 Climbing New York Center
09:44AM 39.6419 -76.1225 232° Southwest 234 269 36,000  Level New York Center
09:45AM 39.5947 -76.1917 228° Southwest 252 290 36,000  Level New York Center
09:46AM 39.5433 -76.2686 229° Southwest 264 304 36,000  Level New York Center
09:47AM 39.4961 -76.3403 230° Southwest 270 311 36,000  Level New York Center
09:48AM 39.4503 -76.4139 231° Southwest 272 313 36,000  Level Washington Center
09:49AM 39.4061 -76.4886 233° Southwest 278 320 36,000  Level Washington Center
09:50AM 39.3469 -76.5711 227° Southwest 278 320 36,000  Level Washington Center
09:51AM 39.2986 -76.6456 230° Southwest 278 320 36,000  Level Washington Center
09:52AM 39.2500 -76.7200 230° Southwest 278 320 36,000  Level Washington Center
09:53AM 39.2033 -76.7917 230° Southwest 278 320 36,000  Level Washington Center
09:54AM 39.1653 -76.8525 231° Southwest 278 320 36,000  Level Washington Center
09:55AM 39.1081 -76.9425 231° Southwest 278 320 36,000  Level Washington Center
09:56AM 39.0592 -77.0164 230° Southwest 278 320 36,000  Level Washington Center
09:57AM 39.0022 -77.0847 223° Southwest 278 320 36,000  Level Washington Center
09:58AM 38.9408 -77.1528 221° Southwest 283 326 36,000  Level Washington Center
09:59AM 38.8794 -77.2208 221° Southwest 295 339 36,000  Level Washington Center
10:00AM 38.8203 -77.2861 221° Southwest 295 339 36,000  Level Washington Center
10:01AM 38.7589 -77.3514 220° Southwest 295 339 36,000  Level Washington Center
10:02AM 38.6994 -77.4164 220° Southwest 290 334 36,000  Level Washington Center
10:03AM 38.6381 -77.4814 220° Southwest 290 334 36,000  Level Washington Center
10:04AM 38.5786 -77.5489 222° Southwest 290 334 36,000  Level Washington Center
10:05AM 38.5169 -77.6136 219° Southwest 290 334 36,000  Level Washington Center
10:06AM 38.4617 -77.6731 220° Southwest 290 334 36,000  Level Washington Center
10:07AM 38.4022 -77.7403 222° Southwest 290 334 36,000  Level Washington Center
10:08AM 38.3447 -77.8075 223° Southwest 290 334 36,000  Level Washington Center
10:09AM 38.2872 -77.8747 223° Southwest 284 327 36,000  Level Washington Center
10:10AM 38.2275 -77.9417 221° Southwest 289 333 36,000  Level Washington Center
10:11AM 38.1678 -78.0083 221° Southwest 289 333 36,000  Level Washington Center
10:12AM 38.1058 -78.0750 220° Southwest 289 333 36,000  Level Washington Center
10:13AM 38.0461 -78.1442 222° Southwest 289 333 36,000  Level Washington Center
10:14AM 37.9819 -78.2158 221° Southwest 284 327 36,000  Level Washington Center
10:15AM 37.9242 -78.2794 221° Southwest 291 335 36,000  Level Washington Center
10:16AM 37.8622 -78.3483 221° Southwest 296 341 36,000  Level Washington Center
10:17AM 37.8000 -78.4169 221° Southwest 296 341 36,000  Level Washington Center
10:18AM 37.7358 -78.4881 221° Southwest 296 341 36,000  Level Washington Center
10:19AM 37.6714 -78.5592 221° Southwest 296 341 36,000  Level Washington Center
10:20AM 37.6028 -78.6325 220° Southwest 302 348 36,000  Level Washington Center
10:21AM 37.5406 -78.7008 221° Southwest 302 348 36,000  Level Washington Center
10:22AM 37.4764 -78.7689 220° Southwest 302 348 36,000  Level Washington Center
10:23AM 37.4117 -78.8419 222° Southwest 302 348 36,000  Level Washington Center
10:24AM 37.3472 -78.9097 220° Southwest 302 348 36,000  Level Washington Center
10:25AM 37.2892 -78.9697 219° Southwest 307 353 36,000  Level Washington Center
10:26AM 37.2269 -79.0403 222° Southwest 307 353 36,000 -360 Level Washington Center
10:27AM 37.1600 -79.1100 220° Southwest 312 359 35,300 -720 Descending Washington Center
10:28AM 37.0911 -79.1825 220° Southwest 318 366 34,600 -480 Descending Washington Center
10:29AM 37.0222 -79.2572 221° Southwest 323 372 34,400 -600 Descending Washington Center
10:30AM 36.9531 -79.3319 221° Southwest 323 372 33,500 -1,080 Descending Washington Center
10:31AM 36.8775 -79.4167 222° Southwest 323 372 32,300 -1,500 Descending Washington Center
10:32AM 36.8042 -79.4908 219° Southwest 334 384 30,600 -1,320 Descending Washington Center
10:33AM 36.7328 -79.5675 221° Southwest 340 391 29,700 -1,020 Descending Washington Center
10:34AM 36.6589 -79.6492 222° Southwest 346 398 28,600 -1,080 Descending Washington Center
10:34AM 36.6153 -79.6911 218° Southwest 359 413 28,000 -1,080 Descending Atlanta Center
10:35AM 36.5389 -79.7703 220° Southwest 364 419 26,900 -1,080 Descending Atlanta Center
10:36AM 36.4664 -79.8464 220° Southwest 358 412 25,900 -1,140 Descending Atlanta Center
10:37AM 36.3878 -79.9303 221° Southwest 353 406 24,700 -960 Descending Atlanta Center
10:38AM 36.3153 -80.0061 220° Southwest 348 400 24,000 -840 Descending Atlanta Center
10:39AM 36.2403 -80.0692 214° Southwest 338 389 23,100 -1,200 Descending Atlanta Center
10:40AM 36.1650 -80.1319 214° Southwest 332 382 21,600 -1,800 Descending Atlanta Center
10:41AM 36.1042 -80.1839 215° Southwest 320 368 19,600 -1,860 Descending Atlanta Center
10:42AM 36.0350 -80.2436 215° Southwest 314 361 17,900 -1,860 Descending Atlanta Center
10:43AM 35.9658 -80.3033 215° Southwest 314 361 15,900 -1,740 Descending Atlanta Center
10:44AM 35.9133 -80.3519 217° Southwest 307 353 15,000 -1,020 Descending Atlanta Center
10:44AM 35.8908 -80.3708 214° Southwest 314 361 14,900 -1,200 Descending Atlanta Center
10:45AM 35.8644 -80.3925 214° Southwest 299 344 14,200 -1,500 Descending Atlanta Center
10:45AM 35.8256 -80.4225 212° Southwest 303 349 13,400 -1,440 Descending Atlanta Center
10:46AM 35.8075 -80.4411 220° Southwest 275 316 12,900 -1,320 Descending Atlanta Center
10:46AM 35.7625 -80.4764 212° Southwest 286 329 12,100 -1,260 Descending Atlanta Center
10:47AM 35.7258 -80.5086 216° Southwest 264 304 11,300 -1,140 Descending Atlanta Center
10:47AM 35.7014 -80.5278 212° Southwest 281 323 11,000 -360 Descending Atlanta Center
10:48AM 35.6689 -80.5572 216° Southwest 270 311 11,000  Level Atlanta Center
10:48AM 35.6383 -80.5814 213° Southwest 281 323 11,000  Level Atlanta Center
10:49AM 35.6036 -80.6086 213° Southwest 280 322 11,000  Level Atlanta Center
10:49AM 35.5731 -80.6328 213° Southwest 281 323 11,000  Level Atlanta Center
10:50AM 35.5467 -80.6594 219° Southwest 274 315 11,000  Level Atlanta Center
10:50AM 35.5139 -80.6836 211° Southwest 275 316 11,000  Level Atlanta Center
10:51AM 35.4833 -80.7106 216° Southwest 270 311 11,000  Level Atlanta Center
10:51AM 35.4506 -80.7372 214° Southwest 275 316 11,000  Level Atlanta Center
10:52AM 35.4283 -80.7611 221° Southwest 271 312 11,000 -900 Level Atlanta Center
10:53AM 35.3689 -80.8067 212° Southwest 270 311 9,900 -1,260 Descending Atlanta Center
10:53AM 35.3219 -80.8367 208° Southwest 275 316 9,000 -840 Descending Atlanta Center
10:54AM 35.2928 -80.8403 186° South 290 334 9,000 -660 Level Atlanta Center
10:55AM 35.2133 -80.8331 176° South 280 322 8,100 -1,440 Descending Atlanta Center
10:56AM 35.1422 -80.8283 177° South 238 274 6,100 -1,800 Descending Atlanta Center
10:57AM 35.0756 -80.8358 185° South 224 258 4,300 -1,320 Descending Atlanta Center
10:58AM 35.0789 -80.8842 275° West 188 216 3,600 -1,020 Descending Atlanta Center
10:59AM 35.1153 -80.9208 321° Northwest 143 165 2,500 -900 Descending Atlanta Center
11:00AM 35.1469 -80.9322 344° North 108 124 1,800 -600 Descending Atlanta Center
11:01AM 35.1761 -80.9361 354° North 99 114 1,300 -540 Descending Atlanta Center
11:03AM 35.2000 -80.9333 352° North  Level FlightAware Approximate
11:10AM 35.2137 -80.9491 352° North  Level Estimated